createdAt,value
2023-02-26T00:00:53.527Z,53.09
2023-02-26T00:01:50.221Z,52.26
2023-02-26T00:02:49.039Z,51.89
2023-02-26T00:03:49.660Z,51.69
2023-02-26T00:04:46.250Z,51.76
2023-02-26T00:05:42.929Z,51.79
2023-02-26T00:06:54.202Z,51.84
2023-02-26T00:07:56.106Z,51.76
2023-02-26T00:08:53.725Z,52.14
2023-02-26T00:09:50.527Z,51.93
2023-02-26T00:10:47.947Z,51.81
2023-02-26T00:11:45.578Z,51.95
2023-02-26T00:12:43.358Z,52.46
2023-02-26T00:13:42.541Z,52.20
2023-02-26T00:14:39.555Z,52.33
2023-02-26T00:15:36.467Z,51.90
2023-02-26T00:16:36.321Z,51.52
2023-02-26T00:17:43.004Z,51.21
2023-02-26T00:18:40.093Z,51.65
2023-02-26T00:19:36.904Z,51.82
2023-02-26T00:20:34.130Z,51.69
2023-02-26T00:21:31.843Z,51.69
2023-02-26T00:22:28.765Z,51.66
2023-02-26T00:23:25.522Z,51.32
2023-02-26T00:24:22.134Z,51.61
2023-02-26T00:25:18.812Z,51.42
2023-02-26T00:26:15.522Z,51.24
2023-02-26T00:27:12.559Z,50.99
2023-02-26T00:28:09.880Z,50.91
2023-02-26T00:29:06.756Z,51.21
2023-02-26T00:30:06.233Z,50.98
2023-02-26T00:31:03.173Z,51.22
2023-02-26T00:32:00.135Z,50.62
2023-02-26T00:32:57.133Z,50.31
2023-02-26T00:33:56.274Z,50.15
2023-02-26T00:34:53.160Z,49.64
2023-02-26T00:35:58.943Z,50.14
2023-02-26T00:37:32.631Z,50.28
2023-02-26T00:38:34.863Z,49.78
2023-02-26T00:39:40.918Z,50.49
2023-02-26T00:40:45.917Z,49.80
2023-02-26T00:41:42.853Z,49.88
2023-02-26T00:42:39.756Z,50.37
2023-02-26T00:43:36.639Z,50.58
2023-02-26T00:44:35.194Z,50.28
2023-02-26T00:45:32.374Z,50.69
2023-02-26T00:46:59.968Z,50.72
2023-02-26T00:48:19.609Z,50.74
2023-02-26T00:49:34.503Z,51.30
2023-02-26T00:50:31.778Z,51.08
2023-02-26T00:51:32.681Z,50.84
2023-02-26T00:52:59.830Z,50.86
2023-02-26T00:54:12.833Z,50.76
2023-02-26T00:55:09.624Z,51.11
2023-02-26T00:56:06.346Z,50.77
2023-02-26T00:57:05.866Z,50.42
2023-02-26T00:58:02.526Z,50.56
2023-02-26T00:58:59.101Z,50.55
2023-02-26T00:59:55.696Z,49.77
2023-02-26T01:00:52.293Z,49.32
2023-02-26T01:01:49.477Z,48.96
2023-02-26T01:02:46.944Z,49.12
2023-02-26T01:03:43.673Z,49.48
2023-02-26T01:04:41.071Z,49.11
2023-02-26T01:05:38.144Z,48.92
2023-02-26T01:06:38.810Z,49.98
2023-02-26T01:07:52.095Z,49.61
2023-02-26T01:08:59.454Z,49.61
2023-02-26T01:09:56.281Z,49.49
2023-02-26T01:10:53.201Z,48.37
2023-02-26T01:11:50.603Z,48.30
2023-02-26T01:12:47.612Z,48.33
2023-02-26T01:13:44.399Z,47.81
2023-02-26T01:14:41.512Z,47.53
2023-02-26T01:15:38.583Z,47.28
2023-02-26T01:17:00.040Z,46.74
2023-02-26T01:18:09.910Z,46.71
2023-02-26T01:19:28.988Z,46.32
2023-02-26T01:20:36.421Z,46.02
2023-02-26T01:21:39.050Z,46.64
2023-02-26T01:22:50.970Z,46.22
2023-02-26T01:23:51.599Z,45.39
2023-02-26T01:24:52.322Z,46.56
2023-02-26T01:25:55.137Z,46.55
2023-02-26T01:26:51.890Z,47.25
2023-02-26T01:27:48.835Z,47.14
2023-02-26T01:28:45.838Z,47.32
2023-02-26T01:29:42.575Z,47.11
2023-02-26T01:30:39.492Z,47.54
2023-02-26T01:32:03.412Z,46.93
2023-02-26T01:33:14.951Z,46.76
2023-02-26T01:34:18.366Z,46.13
2023-02-26T01:35:52.390Z,46.91
2023-02-26T01:37:02.970Z,46.21
2023-02-26T01:38:08.567Z,45.80
2023-02-26T01:39:32.664Z,46.15
2023-02-26T01:40:32.206Z,45.90
2023-02-26T01:41:36.621Z,46.50
2023-02-26T01:42:38.035Z,46.68
2023-02-26T01:43:38.718Z,47.22
2023-02-26T01:44:55.928Z,47.43
2023-02-26T01:46:05.519Z,47.81
2023-02-26T01:47:20.598Z,47.93
2023-02-26T01:48:31.648Z,47.57
2023-02-26T01:49:28.854Z,47.95
2023-02-26T01:50:29.993Z,48.23
2023-02-26T01:51:51.945Z,48.27
2023-02-26T01:52:48.481Z,48.24
2023-02-26T01:53:45.064Z,48.07
2023-02-26T01:54:41.689Z,48.67
2023-02-26T01:55:38.290Z,48.58
2023-02-26T01:56:35.348Z,48.80
2023-02-26T01:57:32.472Z,48.60
2023-02-26T01:58:33.710Z,48.89
2023-02-26T01:59:32.371Z,48.81
2023-02-26T02:00:30.592Z,48.74
2023-02-26T02:01:27.229Z,49.00
2023-02-26T02:02:25.676Z,48.94
2023-02-26T02:03:24.664Z,48.85
2023-02-26T02:04:23.584Z,48.81
2023-02-26T02:05:30.584Z,48.79
2023-02-26T02:06:29.837Z,48.58
2023-02-26T02:07:26.440Z,48.68
2023-02-26T02:08:23.093Z,48.51
2023-02-26T02:09:19.746Z,48.34
2023-02-26T02:10:16.783Z,48.12
2023-02-26T02:11:15.087Z,48.35
2023-02-26T02:12:35.977Z,48.41
2023-02-26T02:13:50.524Z,48.42
2023-02-26T02:15:06.128Z,47.75
2023-02-26T02:16:12.330Z,47.09
2023-02-26T02:17:19.536Z,47.14
2023-02-26T02:18:16.138Z,46.87
2023-02-26T02:19:41.762Z,46.35
2023-02-26T02:21:28.031Z,45.81
2023-02-26T02:22:53.522Z,45.34
2023-02-26T02:24:06.529Z,45.24
2023-02-26T02:25:11.777Z,45.51
2023-02-26T02:26:34.376Z,46.00
2023-02-26T02:28:00.916Z,45.63
2023-02-26T02:29:15.936Z,45.87
2023-02-26T02:30:30.954Z,45.87
2023-02-26T02:31:33.628Z,45.55
2023-02-26T02:32:33.169Z,46.07
2023-02-26T02:33:37.872Z,46.19
2023-02-26T02:34:37.261Z,45.54
2023-02-26T02:36:06.540Z,44.93
2023-02-26T02:37:19.942Z,45.01
2023-02-26T02:38:43.021Z,44.98
2023-02-26T02:39:49.932Z,44.96
2023-02-26T02:40:51.725Z,45.04
2023-02-26T02:42:03.046Z,45.94
2023-02-26T02:43:04.657Z,45.29
2023-02-26T02:44:04.332Z,45.96
2023-02-26T02:45:44.819Z,45.54
2023-02-26T02:46:45.527Z,45.66
2023-02-26T02:47:44.426Z,45.30
2023-02-26T02:48:48.067Z,45.56
2023-02-26T02:49:51.598Z,46.41
2023-02-26T02:50:54.027Z,45.96
2023-02-26T02:51:59.510Z,45.72
2023-02-26T02:53:06.032Z,45.60
2023-02-26T02:54:33.593Z,45.30
2023-02-26T02:55:38.069Z,45.25
2023-02-26T02:56:46.773Z,45.17
2023-02-26T02:58:14.885Z,45.33
2023-02-26T02:59:17.496Z,45.59
2023-02-26T03:00:17.956Z,44.85
2023-02-26T03:01:17.813Z,44.82
2023-02-26T03:02:40.508Z,44.48
2023-02-26T03:03:42.920Z,45.12
2023-02-26T03:04:41.237Z,44.74
2023-02-26T03:05:38.017Z,45.01
2023-02-26T03:06:35.963Z,45.34
2023-02-26T03:07:37.877Z,45.29
2023-02-26T03:08:39.603Z,45.49
2023-02-26T03:09:36.712Z,45.41
2023-02-26T03:10:33.833Z,45.66
2023-02-26T03:11:31.748Z,45.98
2023-02-26T03:12:32.417Z,45.96
2023-02-26T03:13:29.069Z,45.18
2023-02-26T03:14:26.578Z,44.50
2023-02-26T03:15:42.896Z,45.25
2023-02-26T03:16:54.371Z,45.05
2023-02-26T03:18:05.691Z,45.14
2023-02-26T03:19:08.272Z,45.58
2023-02-26T03:20:27.633Z,46.48
2023-02-26T03:21:33.029Z,46.12
2023-02-26T03:22:43.673Z,45.40
2023-02-26T03:23:59.368Z,45.23
2023-02-26T03:25:07.577Z,45.96
2023-02-26T03:26:12.241Z,45.33
2023-02-26T03:27:31.636Z,45.41
2023-02-26T03:28:38.467Z,45.00
2023-02-26T03:29:43.772Z,44.85
2023-02-26T03:30:54.662Z,45.18
2023-02-26T03:31:58.305Z,45.27
2023-02-26T03:33:30.360Z,45.19
2023-02-26T03:35:00.257Z,45.51
2023-02-26T03:36:06.620Z,46.13
2023-02-26T03:37:18.292Z,46.20
2023-02-26T03:38:23.096Z,45.94
2023-02-26T03:39:31.804Z,44.93
2023-02-26T03:40:35.359Z,44.74
2023-02-26T03:41:42.443Z,45.02
2023-02-26T03:42:45.789Z,45.46
2023-02-26T03:43:53.377Z,45.50
2023-02-26T03:45:01.176Z,45.06
2023-02-26T03:46:04.562Z,45.76
2023-02-26T03:47:06.138Z,45.70
2023-02-26T03:48:07.112Z,45.62
2023-02-26T03:49:08.937Z,45.41
2023-02-26T03:50:08.874Z,44.91
2023-02-26T03:51:12.728Z,45.06
2023-02-26T03:52:09.571Z,44.00
2023-02-26T03:53:22.715Z,44.49
2023-02-26T03:54:24.078Z,44.41
2023-02-26T03:55:37.513Z,44.82
2023-02-26T03:56:41.752Z,44.51
2023-02-26T03:57:38.852Z,44.50
2023-02-26T03:58:35.790Z,44.93
2023-02-26T03:59:33.833Z,44.65
2023-02-26T04:00:32.908Z,44.38
2023-02-26T04:01:36.260Z,44.15
2023-02-26T04:02:57.040Z,44.26
2023-02-26T04:04:15.338Z,44.72
2023-02-26T04:05:17.574Z,44.59
2023-02-26T04:06:14.670Z,44.34
2023-02-26T04:07:13.445Z,44.55
2023-02-26T04:08:10.052Z,44.15
2023-02-26T04:09:06.941Z,44.59
2023-02-26T04:10:04.648Z,44.96
2023-02-26T04:11:17.289Z,44.55
2023-02-26T04:12:14.688Z,44.31
2023-02-26T04:13:11.282Z,44.26
2023-02-26T04:14:07.883Z,44.19
2023-02-26T04:15:05.402Z,44.59
2023-02-26T04:16:02.396Z,44.50
2023-02-26T04:16:59.148Z,44.66
2023-02-26T04:17:55.821Z,44.53
2023-02-26T04:18:52.462Z,44.60
2023-02-26T04:19:49.026Z,44.94
2023-02-26T04:20:45.659Z,44.63
2023-02-26T04:21:42.244Z,44.81
2023-02-26T04:22:39.200Z,44.78
2023-02-26T04:23:35.796Z,45.42
2023-02-26T04:24:32.410Z,45.07
2023-02-26T04:25:29.007Z,45.53
2023-02-26T04:26:25.879Z,45.47
2023-02-26T04:27:22.660Z,45.57
2023-02-26T04:28:19.272Z,45.55
2023-02-26T04:29:15.915Z,45.53
2023-02-26T04:30:12.833Z,45.60
2023-02-26T04:31:10.552Z,45.95
2023-02-26T04:32:07.424Z,46.19
2023-02-26T04:33:04.207Z,45.78
2023-02-26T04:34:00.838Z,46.12
2023-02-26T04:34:57.411Z,46.81
2023-02-26T04:35:53.996Z,46.78
2023-02-26T04:36:50.580Z,46.52
2023-02-26T04:37:47.221Z,46.66
2023-02-26T04:38:44.393Z,46.84
2023-02-26T04:39:41.078Z,46.77
2023-02-26T04:40:37.690Z,47.10
2023-02-26T04:41:34.247Z,46.71
2023-02-26T04:42:30.882Z,46.43
2023-02-26T04:43:27.462Z,46.71
2023-02-26T04:44:24.058Z,46.36
2023-02-26T04:45:20.675Z,46.23
2023-02-26T04:46:17.362Z,46.61
2023-02-26T04:47:14.315Z,45.70
2023-02-26T04:48:10.895Z,46.37
2023-02-26T04:49:07.529Z,46.37
2023-02-26T04:50:04.514Z,46.34
2023-02-26T04:51:01.145Z,46.03
2023-02-26T04:51:57.733Z,45.96
2023-02-26T04:52:54.331Z,46.50
2023-02-26T04:53:51.078Z,46.50
2023-02-26T04:54:47.614Z,46.27
2023-02-26T04:55:44.210Z,45.99
2023-02-26T04:56:41.038Z,45.60
2023-02-26T04:57:37.621Z,45.96
2023-02-26T04:58:34.239Z,44.47
2023-02-26T04:59:30.888Z,44.07
2023-02-26T05:00:27.903Z,44.02
2023-02-26T05:01:24.579Z,43.63
2023-02-26T05:02:21.194Z,44.31
2023-02-26T05:03:18.227Z,44.94
2023-02-26T05:04:15.057Z,44.27
2023-02-26T05:05:11.682Z,44.10
2023-02-26T05:06:08.409Z,44.58
2023-02-26T05:07:05.390Z,45.22
2023-02-26T05:08:01.958Z,45.13
2023-02-26T05:08:58.577Z,44.98
2023-02-26T05:09:55.212Z,44.75
2023-02-26T05:10:52.572Z,45.22
2023-02-26T05:11:50.053Z,44.82
2023-02-26T05:12:46.753Z,44.99
2023-02-26T05:13:43.311Z,44.61
2023-02-26T05:14:39.917Z,45.26
2023-02-26T05:15:36.773Z,45.31
2023-02-26T05:16:33.538Z,45.18
2023-02-26T05:17:30.202Z,45.75
2023-02-26T05:18:26.855Z,45.67
2023-02-26T05:19:23.527Z,44.85
2023-02-26T05:20:20.185Z,44.83
2023-02-26T05:21:16.828Z,44.53
2023-02-26T05:22:13.997Z,45.25
2023-02-26T05:23:10.624Z,44.95
2023-02-26T05:24:07.546Z,44.77
2023-02-26T05:25:05.051Z,45.10
2023-02-26T05:26:02.158Z,45.34
2023-02-26T05:26:58.705Z,44.67
2023-02-26T05:27:55.839Z,44.60
2023-02-26T05:28:52.611Z,44.70
2023-02-26T05:29:49.265Z,45.17
2023-02-26T05:30:45.883Z,43.89
2023-02-26T05:31:42.916Z,43.96
2023-02-26T05:32:39.902Z,44.12
2023-02-26T05:33:36.540Z,44.17
2023-02-26T05:34:33.138Z,43.81
2023-02-26T05:35:29.801Z,43.72
2023-02-26T05:36:26.863Z,43.26
2023-02-26T05:37:23.594Z,43.95
2023-02-26T05:38:20.486Z,43.70
2023-02-26T05:39:17.123Z,44.31
2023-02-26T05:40:14.183Z,44.36
2023-02-26T05:41:10.873Z,42.29
2023-02-26T05:42:08.265Z,40.42
2023-02-26T05:43:04.896Z,41.27
2023-02-26T05:44:02.605Z,41.45
2023-02-26T05:44:59.311Z,42.27
2023-02-26T05:45:56.031Z,41.66
2023-02-26T05:46:52.828Z,42.24
2023-02-26T05:47:49.548Z,42.74
2023-02-26T05:48:46.149Z,43.03
2023-02-26T05:49:42.726Z,43.59
2023-02-26T05:50:39.305Z,43.54
2023-02-26T05:51:35.975Z,43.06
2023-02-26T05:52:35.639Z,43.13
2023-02-26T05:53:34.891Z,41.80
2023-02-26T05:54:33.628Z,41.71
2023-02-26T05:55:30.187Z,42.23
2023-02-26T05:56:27.039Z,41.67
2023-02-26T05:57:24.472Z,41.11
2023-02-26T05:58:21.593Z,40.91
2023-02-26T05:59:18.304Z,41.50
2023-02-26T06:00:15.426Z,42.10
2023-02-26T06:01:12.166Z,42.08
2023-02-26T06:02:08.869Z,41.32
2023-02-26T06:03:06.446Z,41.29
2023-02-26T06:04:06.885Z,41.12
2023-02-26T06:05:03.808Z,41.58
2023-02-26T06:06:00.395Z,40.09
2023-02-26T06:06:56.981Z,39.72
2023-02-26T06:07:53.542Z,39.51
2023-02-26T06:08:50.169Z,39.45
2023-02-26T06:09:46.822Z,40.04
2023-02-26T06:10:44.048Z,39.79
2023-02-26T06:11:40.828Z,39.95
2023-02-26T06:12:38.191Z,39.93
2023-02-26T06:13:34.852Z,40.89
2023-02-26T06:14:31.456Z,40.61
2023-02-26T06:15:28.128Z,40.42
2023-02-26T06:16:25.467Z,39.67
2023-02-26T06:17:22.324Z,40.10
2023-02-26T06:18:19.153Z,40.68
2023-02-26T06:19:15.775Z,40.35
2023-02-26T06:20:12.928Z,40.99
2023-02-26T06:21:09.508Z,41.78
2023-02-26T06:22:06.217Z,37.90
2023-02-26T06:23:02.825Z,37.39
2023-02-26T06:23:59.496Z,37.98
2023-02-26T06:24:56.160Z,37.86
2023-02-26T06:25:53.420Z,38.16
2023-02-26T06:26:50.060Z,38.37
2023-02-26T06:27:46.680Z,37.88
2023-02-26T06:28:43.283Z,38.05
2023-02-26T06:29:39.925Z,37.72
2023-02-26T06:30:36.787Z,38.42
2023-02-26T06:31:33.449Z,38.97
2023-02-26T06:32:30.848Z,39.06
2023-02-26T06:33:27.581Z,39.05
2023-02-26T06:34:24.154Z,39.60
2023-02-26T06:35:20.782Z,40.10
2023-02-26T06:36:17.606Z,39.46
2023-02-26T06:37:14.273Z,39.42
2023-02-26T06:38:10.916Z,39.69
2023-02-26T06:39:08.163Z,39.22
2023-02-26T06:40:05.713Z,38.21
2023-02-26T06:41:02.302Z,37.13
2023-02-26T06:41:58.943Z,35.94
2023-02-26T06:42:55.536Z,36.40
2023-02-26T06:43:52.174Z,36.72
2023-02-26T06:44:48.878Z,37.69
2023-02-26T06:45:46.453Z,38.39
2023-02-26T06:46:43.110Z,38.90
2023-02-26T06:47:39.792Z,38.85
2023-02-26T06:48:36.403Z,38.58
2023-02-26T06:49:33.046Z,39.02
2023-02-26T06:50:29.725Z,38.65
2023-02-26T06:51:26.312Z,38.34
2023-02-26T06:52:22.903Z,38.65
2023-02-26T06:53:19.550Z,38.66
2023-02-26T06:54:16.236Z,38.36
2023-02-26T06:55:13.196Z,38.75
2023-02-26T06:56:09.996Z,38.88
2023-02-26T06:57:06.772Z,38.81
2023-02-26T06:58:03.392Z,38.56
2023-02-26T06:58:59.994Z,38.74
2023-02-26T06:59:56.637Z,38.00
2023-02-26T07:00:53.309Z,39.41
2023-02-26T07:01:49.986Z,39.05
2023-02-26T07:02:46.580Z,38.51
2023-02-26T07:03:43.197Z,36.99
2023-02-26T07:04:39.857Z,37.47
2023-02-26T07:05:36.438Z,37.24
2023-02-26T07:06:33.034Z,36.95
2023-02-26T07:07:29.718Z,37.60
2023-02-26T07:08:26.350Z,36.56
2023-02-26T07:09:23.099Z,36.21
2023-02-26T07:10:21.527Z,36.92
2023-02-26T07:11:18.219Z,36.03
2023-02-26T07:12:14.944Z,35.99
2023-02-26T07:13:11.551Z,36.87
2023-02-26T07:14:08.160Z,37.40
2023-02-26T07:15:06.337Z,37.12
2023-02-26T07:16:07.195Z,37.26
2023-02-26T07:17:04.137Z,37.49
2023-02-26T07:18:00.719Z,37.57
2023-02-26T07:18:57.356Z,38.62
2023-02-26T07:19:53.919Z,37.51
2023-02-26T07:20:50.620Z,36.73
2023-02-26T07:21:47.522Z,37.15
2023-02-26T07:22:44.464Z,37.03
2023-02-26T07:23:41.063Z,36.75
2023-02-26T07:24:37.635Z,36.50
2023-02-26T07:25:34.321Z,35.95
2023-02-26T07:26:30.962Z,36.21
2023-02-26T07:27:27.861Z,37.38
2023-02-26T07:28:24.632Z,37.69
2023-02-26T07:29:21.342Z,37.39
2023-02-26T07:30:18.308Z,37.20
2023-02-26T07:31:16.725Z,36.69
2023-02-26T07:32:13.471Z,37.10
2023-02-26T07:33:12.103Z,36.19
2023-02-26T07:34:10.124Z,35.58
2023-02-26T07:35:07.139Z,35.74
2023-02-26T07:36:03.924Z,36.25
2023-02-26T07:37:00.486Z,35.76
2023-02-26T07:37:57.114Z,35.97
2023-02-26T07:38:53.662Z,36.42
2023-02-26T07:39:50.494Z,37.39
2023-02-26T07:40:47.610Z,37.54
2023-02-26T07:41:44.216Z,38.05
2023-02-26T07:42:40.937Z,38.69
2023-02-26T07:43:37.508Z,36.54
2023-02-26T07:44:34.087Z,36.88
2023-02-26T07:45:30.782Z,36.35
2023-02-26T07:46:27.701Z,36.31
2023-02-26T07:47:24.461Z,34.45
2023-02-26T07:48:21.166Z,34.17
2023-02-26T07:49:17.897Z,34.81
2023-02-26T07:50:14.534Z,34.90
2023-02-26T07:51:11.345Z,34.64
2023-02-26T07:52:08.218Z,35.45
2023-02-26T07:53:04.779Z,34.58
2023-02-26T07:54:01.419Z,34.77
2023-02-26T07:54:58.402Z,33.60
2023-02-26T07:55:55.011Z,34.21
2023-02-26T07:56:51.645Z,34.27
2023-02-26T07:57:48.238Z,34.51
2023-02-26T07:58:44.849Z,35.25
2023-02-26T07:59:41.423Z,34.14
2023-02-26T08:00:38.068Z,32.90
2023-02-26T08:01:34.899Z,33.96
2023-02-26T08:02:31.724Z,33.76
2023-02-26T08:03:28.375Z,33.35
2023-02-26T08:04:25.131Z,33.93
2023-02-26T08:05:21.808Z,33.24
2023-02-26T08:06:18.480Z,32.69
2023-02-26T08:07:15.550Z,32.81
2023-02-26T08:08:12.209Z,33.69
2023-02-26T08:09:08.869Z,34.37
2023-02-26T08:10:06.215Z,34.76
2023-02-26T08:11:03.297Z,34.39
2023-02-26T08:12:00.322Z,34.00
2023-02-26T08:12:56.967Z,33.23
2023-02-26T08:13:53.868Z,33.83
2023-02-26T08:14:50.452Z,34.05
2023-02-26T08:15:48.316Z,34.20
2023-02-26T08:16:45.362Z,34.74
2023-02-26T08:17:42.081Z,34.99
2023-02-26T08:18:38.804Z,34.95
2023-02-26T08:19:35.661Z,34.69
2023-02-26T08:20:33.348Z,34.81
2023-02-26T08:21:29.920Z,33.77
2023-02-26T08:22:27.067Z,33.31
2023-02-26T08:23:23.689Z,33.60
2023-02-26T08:24:20.245Z,32.49
2023-02-26T08:25:17.029Z,33.23
2023-02-26T08:26:14.135Z,34.02
2023-02-26T08:27:12.172Z,33.32
2023-02-26T08:28:10.124Z,33.31
2023-02-26T08:29:07.250Z,33.28
2023-02-26T08:30:04.963Z,32.66
2023-02-26T08:31:02.197Z,32.73
2023-02-26T08:31:58.950Z,32.86
2023-02-26T08:32:55.958Z,32.46
2023-02-26T08:33:52.594Z,30.95
2023-02-26T08:34:49.404Z,31.86
2023-02-26T08:35:47.217Z,31.87
2023-02-26T08:36:43.827Z,31.88
2023-02-26T08:37:40.521Z,33.17
2023-02-26T08:38:37.637Z,32.16
2023-02-26T08:39:38.328Z,32.59
2023-02-26T08:40:34.963Z,33.03
2023-02-26T08:41:32.721Z,32.64
2023-02-26T08:42:29.343Z,32.57
2023-02-26T08:43:26.653Z,32.36
2023-02-26T08:44:23.223Z,32.94
2023-02-26T08:45:19.782Z,31.50
2023-02-26T08:46:16.452Z,31.82
2023-02-26T08:47:16.959Z,32.77
2023-02-26T08:48:15.863Z,32.07
2023-02-26T08:49:12.494Z,31.06
2023-02-26T08:50:10.753Z,31.08
2023-02-26T08:51:07.420Z,32.43
2023-02-26T08:52:04.407Z,32.79
2023-02-26T08:53:00.999Z,31.77
2023-02-26T08:53:57.624Z,32.71
2023-02-26T08:54:54.215Z,32.82
2023-02-26T08:55:52.538Z,31.82
2023-02-26T08:56:49.214Z,31.10
2023-02-26T08:57:45.800Z,31.25
2023-02-26T08:58:43.089Z,32.04
2023-02-26T08:59:39.668Z,31.49
2023-02-26T09:00:36.683Z,30.27
2023-02-26T09:01:33.261Z,31.11
2023-02-26T09:02:29.913Z,32.06
2023-02-26T09:03:26.575Z,31.93
2023-02-26T09:04:23.222Z,29.84
2023-02-26T09:05:20.081Z,31.08
2023-02-26T09:06:16.666Z,30.64
2023-02-26T09:07:13.273Z,31.14
2023-02-26T09:08:11.566Z,31.18
2023-02-26T09:09:08.385Z,31.33
2023-02-26T09:10:06.590Z,30.81
2023-02-26T09:11:04.070Z,30.86
2023-02-26T09:12:00.695Z,31.03
2023-02-26T09:12:57.309Z,31.77
2023-02-26T09:13:53.861Z,31.55
2023-02-26T09:14:50.492Z,31.81
2023-02-26T09:15:49.289Z,31.16
2023-02-26T09:16:45.996Z,31.28
2023-02-26T09:17:42.936Z,32.18
2023-02-26T09:18:39.521Z,31.74
2023-02-26T09:19:36.231Z,31.30
2023-02-26T09:20:32.979Z,31.36
2023-02-26T09:21:29.982Z,31.06
2023-02-26T09:22:26.586Z,31.36
2023-02-26T09:23:23.174Z,30.04
2023-02-26T09:24:19.934Z,30.39
2023-02-26T09:25:16.805Z,31.34
2023-02-26T09:26:13.595Z,31.28
2023-02-26T09:27:10.181Z,30.99
2023-02-26T09:28:06.851Z,30.81
2023-02-26T09:29:03.470Z,30.10
2023-02-26T09:30:00.130Z,31.13
2023-02-26T09:30:56.825Z,30.83
2023-02-26T09:31:53.514Z,30.72
2023-02-26T09:32:50.276Z,31.32
2023-02-26T09:33:46.898Z,30.30
2023-02-26T09:34:43.508Z,30.48
2023-02-26T09:35:40.076Z,31.16
2023-02-26T09:36:37.544Z,31.18
2023-02-26T09:37:34.293Z,31.50
2023-02-26T09:38:31.308Z,31.10
2023-02-26T09:39:27.881Z,31.03
2023-02-26T09:40:45.569Z,31.16
2023-02-26T09:41:48.480Z,31.17
2023-02-26T09:42:55.251Z,31.10
2023-02-26T09:44:17.469Z,30.83
2023-02-26T09:45:26.014Z,30.88
2023-02-26T09:46:25.920Z,29.89
2023-02-26T09:47:30.274Z,31.29
2023-02-26T09:48:31.153Z,30.75
2023-02-26T09:49:43.015Z,31.66
2023-02-26T09:50:52.579Z,30.83
2023-02-26T09:51:55.592Z,30.41
2023-02-26T09:53:14.645Z,30.88
2023-02-26T09:54:23.465Z,30.88
2023-02-26T09:55:21.204Z,30.85
2023-02-26T09:56:21.978Z,30.04
2023-02-26T09:57:43.179Z,30.35
2023-02-26T09:58:41.493Z,31.10
2023-02-26T09:59:38.292Z,30.04
2023-02-26T10:00:38.447Z,30.43
2023-02-26T10:01:43.902Z,29.89
2023-02-26T10:02:52.285Z,30.86
2023-02-26T10:04:15.930Z,30.84
2023-02-26T10:05:15.041Z,30.21
2023-02-26T10:06:29.388Z,30.26
2023-02-26T10:07:45.441Z,31.07
2023-02-26T10:08:45.101Z,31.41
2023-02-26T10:09:41.727Z,30.51
2023-02-26T10:10:46.190Z,29.20
2023-02-26T10:12:01.621Z,30.54
2023-02-26T10:13:00.461Z,30.00
2023-02-26T10:14:13.187Z,30.38
2023-02-26T10:15:23.473Z,29.25
2023-02-26T10:16:28.965Z,30.43
2023-02-26T10:17:45.037Z,29.48
2023-02-26T10:18:50.401Z,29.18
2023-02-26T10:19:51.645Z,29.43
2023-02-26T10:21:13.034Z,30.40
2023-02-26T10:22:24.834Z,30.42
2023-02-26T10:23:48.797Z,30.36
2023-02-26T10:24:55.693Z,29.22
2023-02-26T10:26:01.441Z,28.70
2023-02-26T10:27:05.373Z,29.52
2023-02-26T10:28:06.789Z,29.65
2023-02-26T10:29:31.939Z,29.85
2023-02-26T10:30:44.609Z,29.98
2023-02-26T10:31:52.859Z,29.65
2023-02-26T10:33:03.952Z,29.35
2023-02-26T10:34:00.500Z,28.62
2023-02-26T10:35:01.913Z,29.25
2023-02-26T10:36:17.789Z,30.21
2023-02-26T10:37:36.342Z,28.51
2023-02-26T10:38:33.144Z,29.75
2023-02-26T10:39:40.933Z,30.61
2023-02-26T10:40:46.541Z,29.35
2023-02-26T10:41:43.786Z,29.28
2023-02-26T10:43:17.979Z,29.59
2023-02-26T10:44:24.897Z,29.50
2023-02-26T10:45:35.485Z,29.86
2023-02-26T10:47:07.508Z,30.93
2023-02-26T10:48:36.277Z,30.87
2023-02-26T10:49:38.934Z,30.76
2023-02-26T10:50:36.440Z,30.77
2023-02-26T10:51:37.488Z,31.07
2023-02-26T10:52:36.230Z,31.09
2023-02-26T10:53:34.679Z,32.01
2023-02-26T10:54:39.148Z,32.07
2023-02-26T10:55:41.894Z,31.26
2023-02-26T10:56:38.482Z,31.81
2023-02-26T10:57:40.150Z,31.39
2023-02-26T10:58:36.786Z,31.04
2023-02-26T10:59:33.454Z,31.28
2023-02-26T11:00:30.113Z,31.92
2023-02-26T11:01:30.876Z,31.94
2023-02-26T11:02:40.219Z,31.17
2023-02-26T11:03:41.100Z,30.50
2023-02-26T11:04:38.957Z,30.45
2023-02-26T11:05:35.642Z,30.50
2023-02-26T11:06:36.377Z,31.54
2023-02-26T11:07:36.470Z,30.34
2023-02-26T11:08:42.042Z,30.04
2023-02-26T11:09:43.853Z,30.65
2023-02-26T11:10:53.450Z,30.64
2023-02-26T11:12:15.887Z,30.17
2023-02-26T11:13:13.041Z,30.69
2023-02-26T11:14:10.733Z,31.00
2023-02-26T11:15:20.182Z,30.98
2023-02-26T11:16:18.736Z,30.94
2023-02-26T11:17:34.137Z,31.89
2023-02-26T11:18:41.331Z,31.66
2023-02-26T11:19:48.686Z,31.72
2023-02-26T11:20:47.011Z,31.94
2023-02-26T11:21:47.080Z,31.97
2023-02-26T11:22:53.422Z,32.43
2023-02-26T11:23:54.882Z,32.82
2023-02-26T11:24:52.410Z,31.66
2023-02-26T11:26:05.406Z,31.72
2023-02-26T11:27:05.166Z,32.12
2023-02-26T11:28:18.638Z,31.91
2023-02-26T11:29:19.782Z,32.28
2023-02-26T11:30:22.069Z,33.11
2023-02-26T11:31:21.508Z,33.02
2023-02-26T11:32:22.385Z,32.69
2023-02-26T11:33:27.699Z,33.34
2023-02-26T11:34:25.967Z,34.27
2023-02-26T11:35:24.960Z,34.06
2023-02-26T11:36:26.431Z,33.60
2023-02-26T11:37:29.584Z,33.04
2023-02-26T11:38:28.175Z,33.17
2023-02-26T11:39:27.754Z,33.73
2023-02-26T11:40:35.706Z,33.49
2023-02-26T11:41:37.775Z,34.41
2023-02-26T11:42:38.449Z,34.84
2023-02-26T11:44:02.671Z,33.78
2023-02-26T11:44:59.789Z,34.54
2023-02-26T11:45:59.361Z,34.46
2023-02-26T11:46:58.259Z,33.85
2023-02-26T11:48:23.849Z,34.31
2023-02-26T11:49:23.971Z,34.60
2023-02-26T11:50:23.261Z,34.41
2023-02-26T11:51:22.887Z,34.72
2023-02-26T11:52:27.827Z,34.77
2023-02-26T11:53:30.773Z,35.24
2023-02-26T11:54:28.856Z,34.83
2023-02-26T11:55:51.946Z,34.86
2023-02-26T11:56:48.611Z,35.01
2023-02-26T11:57:45.271Z,34.84
2023-02-26T11:58:45.599Z,34.44
2023-02-26T11:59:48.232Z,34.11
2023-02-26T12:00:46.565Z,34.20
2023-02-26T12:01:43.343Z,34.67
2023-02-26T12:02:40.394Z,34.38
2023-02-26T12:03:41.116Z,34.62
2023-02-26T12:04:41.572Z,34.56
2023-02-26T12:05:38.582Z,34.19
2023-02-26T12:06:35.855Z,34.28
2023-02-26T12:07:33.983Z,34.98
2023-02-26T12:08:32.942Z,34.89
2023-02-26T12:09:29.622Z,34.06
2023-02-26T12:10:37.615Z,34.46
2023-02-26T12:11:53.256Z,34.27
2023-02-26T12:13:04.895Z,35.20
2023-02-26T12:14:07.682Z,34.88
2023-02-26T12:15:15.255Z,34.84
2023-02-26T12:16:28.469Z,34.63
2023-02-26T12:17:32.160Z,34.58
2023-02-26T12:18:54.921Z,35.02
2023-02-26T12:19:54.433Z,35.31
2023-02-26T12:21:21.924Z,35.49
2023-02-26T12:22:30.640Z,35.54
2023-02-26T12:23:50.401Z,35.74
2023-02-26T12:25:21.814Z,36.31
2023-02-26T12:26:28.306Z,36.31
2023-02-26T12:27:34.939Z,37.03
2023-02-26T12:29:00.510Z,36.88
2023-02-26T12:30:18.860Z,37.55
2023-02-26T12:31:53.027Z,36.97
2023-02-26T12:33:01.411Z,37.35
2023-02-26T12:34:26.018Z,37.44
2023-02-26T12:35:22.584Z,36.95
2023-02-26T12:36:48.397Z,37.05
2023-02-26T12:38:24.991Z,37.50
2023-02-26T12:40:08.573Z,37.68
2023-02-26T12:41:46.344Z,35.91
2023-02-26T12:42:59.782Z,36.03
2023-02-26T12:43:57.472Z,36.55
2023-02-26T12:45:12.961Z,37.37
2023-02-26T12:46:31.915Z,36.13
2023-02-26T12:47:40.939Z,36.52
2023-02-26T12:49:02.327Z,36.57
2023-02-26T12:50:29.986Z,37.20
2023-02-26T12:51:58.710Z,36.93
2023-02-26T12:52:58.128Z,37.47
2023-02-26T12:54:23.984Z,37.47
2023-02-26T12:55:34.279Z,36.07
2023-02-26T12:56:33.547Z,36.14
2023-02-26T12:57:51.535Z,36.91
2023-02-26T12:58:48.094Z,37.51
2023-02-26T12:59:50.695Z,37.41
2023-02-26T13:01:00.883Z,36.65
2023-02-26T13:02:33.266Z,36.81
2023-02-26T13:03:43.433Z,36.59
2023-02-26T13:04:55.066Z,37.16
2023-02-26T13:06:35.678Z,36.93
2023-02-26T13:07:49.605Z,36.85
2023-02-26T13:09:13.470Z,37.43
2023-02-26T13:10:51.624Z,36.63
2023-02-26T13:12:04.012Z,36.94
2023-02-26T13:13:32.681Z,37.38
2023-02-26T13:14:45.252Z,37.32
2023-02-26T13:15:48.830Z,36.79
2023-02-26T13:16:52.388Z,37.31
2023-02-26T13:18:13.125Z,36.81
2023-02-26T13:19:21.764Z,36.42
2023-02-26T13:20:25.975Z,36.70